createdAt,value
2022-09-20T00:01:25.815Z,60.68
2022-09-20T00:03:55.458Z,60.65
2022-09-20T00:06:26.243Z,60.86
2022-09-20T00:08:53.270Z,61.03
2022-09-20T00:11:26.106Z,61.23
2022-09-20T00:13:56.194Z,61.44
2022-09-20T00:16:26.662Z,60.60
2022-09-20T00:18:55.252Z,61.00
2022-09-20T00:21:25.680Z,61.12
2022-09-20T00:23:53.169Z,61.19
2022-09-20T00:26:20.150Z,61.07
2022-09-20T00:28:47.221Z,61.55
2022-09-20T00:31:14.668Z,60.92
2022-09-20T00:33:59.814Z,60.88
2022-09-20T00:36:27.420Z,61.20
2022-09-20T00:38:58.325Z,61.34
2022-09-20T00:41:25.899Z,60.90
2022-09-20T00:43:53.670Z,60.95
2022-09-20T00:46:26.238Z,61.28
2022-09-20T00:48:59.187Z,61.24
2022-09-20T00:51:29.885Z,62.03
2022-09-20T00:54:00.706Z,61.27
2022-09-20T00:56:34.807Z,62.46
2022-09-20T00:59:31.816Z,62.72
2022-09-20T01:02:05.455Z,61.71
2022-09-20T01:04:34.929Z,62.85
2022-09-20T01:07:04.511Z,61.33
2022-09-20T01:09:31.004Z,62.08
2022-09-20T01:12:02.540Z,61.53
2022-09-20T01:14:29.336Z,61.98
2022-09-20T01:17:02.414Z,61.97
2022-09-20T01:19:37.932Z,62.20
2022-09-20T01:22:11.308Z,62.10
2022-09-20T01:24:57.378Z,62.62
2022-09-20T01:27:40.750Z,62.95
2022-09-20T01:30:11.960Z,62.42
2022-09-20T01:32:51.994Z,62.12
2022-09-20T01:35:21.304Z,62.68
2022-09-20T01:38:04.150Z,62.52
2022-09-20T01:40:34.482Z,62.87
2022-09-20T01:43:29.096Z,63.25
2022-09-20T01:45:59.515Z,62.99
2022-09-20T01:48:40.105Z,63.78
2022-09-20T01:51:19.202Z,63.40
2022-09-20T01:54:07.612Z,63.41
2022-09-20T01:56:52.838Z,63.84
2022-09-20T01:59:28.374Z,63.98
2022-09-20T02:02:19.361Z,63.91
2022-09-20T02:05:03.990Z,64.14
2022-09-20T02:07:42.562Z,64.49
2022-09-20T02:10:23.996Z,64.04
2022-09-20T02:13:03.034Z,63.88
2022-09-20T02:15:48.381Z,63.67
2022-09-20T02:18:26.272Z,64.21
2022-09-20T02:21:27.732Z,64.29
2022-09-20T02:24:12.810Z,63.74
2022-09-20T02:27:27.181Z,63.29
2022-09-20T02:30:28.899Z,62.59
2022-09-20T02:33:16.954Z,61.65
2022-09-20T02:36:08.219Z,61.52
2022-09-20T02:38:40.550Z,61.39
2022-09-20T02:41:38.690Z,61.46
2022-09-20T02:44:26.632Z,60.71
2022-09-20T02:47:16.428Z,60.98
2022-09-20T02:50:05.374Z,61.06
2022-09-20T02:52:48.262Z,60.96
2022-09-20T02:55:28.675Z,61.21
2022-09-20T02:58:28.246Z,61.37
2022-09-20T03:01:05.701Z,61.22
2022-09-20T03:04:16.937Z,61.08
2022-09-20T03:07:10.045Z,61.32
2022-09-20T03:09:57.138Z,61.25
2022-09-20T03:12:49.324Z,60.72
2022-09-20T03:15:34.622Z,60.58
2022-09-20T03:18:15.437Z,60.83
2022-09-20T03:21:17.960Z,60.73
2022-09-20T03:24:10.567Z,61.03
2022-09-20T03:26:41.079Z,60.82
2022-09-20T03:29:29.099Z,61.26
2022-09-20T03:32:10.464Z,60.51
2022-09-20T03:34:52.238Z,61.03
2022-09-20T03:37:49.580Z,61.21
2022-09-20T03:40:34.260Z,61.03
2022-09-20T03:43:16.364Z,61.24
2022-09-20T03:46:04.196Z,61.41
2022-09-20T03:48:46.982Z,61.33
2022-09-20T03:51:23.655Z,61.11
2022-09-20T03:53:57.521Z,62.36
2022-09-20T03:56:35.970Z,61.76
2022-09-20T03:59:20.666Z,61.93
2022-09-20T04:02:09.899Z,62.52
2022-09-20T04:04:45.365Z,61.99
2022-09-20T04:07:16.935Z,62.00
2022-09-20T04:10:13.951Z,62.63
2022-09-20T04:12:50.789Z,62.21
2022-09-20T04:15:50.008Z,62.06
2022-09-20T04:18:25.091Z,62.61
2022-09-20T04:21:06.665Z,61.92
2022-09-20T04:23:51.255Z,62.03
2022-09-20T04:26:26.198Z,62.23
2022-09-20T04:28:55.842Z,62.14
2022-09-20T04:31:28.112Z,62.60
2022-09-20T04:33:57.479Z,62.03
2022-09-20T04:36:37.409Z,62.20
2022-09-20T04:39:36.631Z,61.52
2022-09-20T04:42:24.062Z,61.26
2022-09-20T04:45:27.299Z,60.58
2022-09-20T04:48:25.720Z,60.80
2022-09-20T04:51:50.403Z,60.18
2022-09-20T04:54:53.533Z,60.94
2022-09-20T04:57:45.885Z,61.71
2022-09-20T05:00:16.001Z,61.12
2022-09-20T05:03:13.293Z,61.11
2022-09-20T05:06:16.199Z,61.20
2022-09-20T05:08:58.724Z,61.71
2022-09-20T05:11:46.996Z,61.74
2022-09-20T05:14:35.572Z,61.37
2022-09-20T05:17:22.229Z,61.37
2022-09-20T05:20:07.157Z,61.61
2022-09-20T05:23:04.111Z,62.08
2022-09-20T05:25:54.854Z,61.57
2022-09-20T05:28:24.099Z,61.62
2022-09-20T05:31:12.122Z,61.34
2022-09-20T05:33:56.661Z,61.48
2022-09-20T05:36:56.779Z,61.26
2022-09-20T05:39:33.725Z,61.27
2022-09-20T05:42:34.355Z,61.33
2022-09-20T05:45:07.223Z,61.40
2022-09-20T05:47:59.327Z,61.13
2022-09-20T05:50:36.455Z,61.40
2022-09-20T05:53:32.013Z,61.26
2022-09-20T05:56:33.818Z,61.69
2022-09-20T05:59:00.305Z,61.11
2022-09-20T06:01:46.721Z,60.82
2022-09-20T06:04:13.333Z,61.56
2022-09-20T06:06:50.989Z,61.48
2022-09-20T06:09:39.280Z,61.34
2022-09-20T06:12:16.979Z,61.08
2022-09-20T06:15:18.208Z,61.66
2022-09-20T06:17:53.163Z,62.21
2022-09-20T06:20:31.995Z,62.32
2022-09-20T06:23:01.949Z,61.15
2022-09-20T06:25:41.138Z,61.80
2022-09-20T06:28:21.240Z,61.59
2022-09-20T06:30:49.245Z,61.45
2022-09-20T06:33:27.280Z,61.02
2022-09-20T06:36:25.640Z,61.65
2022-09-20T06:39:43.048Z,60.89
2022-09-20T06:42:10.637Z,60.96
2022-09-20T06:44:41.178Z,60.78
2022-09-20T06:47:10.748Z,60.88
2022-09-20T06:49:37.683Z,61.06
2022-09-20T06:52:05.706Z,60.17
2022-09-20T06:54:33.086Z,60.15
2022-09-20T06:57:03.569Z,60.35
2022-09-20T06:59:30.176Z,60.52
2022-09-20T07:01:57.088Z,61.02
2022-09-20T07:04:26.681Z,60.48
2022-09-20T07:07:00.414Z,60.37
2022-09-20T07:09:26.850Z,60.39
2022-09-20T07:11:53.438Z,60.22
2022-09-20T07:14:19.954Z,60.90
2022-09-20T07:16:46.497Z,61.03
2022-09-20T07:19:13.711Z,60.32
2022-09-20T07:21:40.500Z,60.16
2022-09-20T07:24:07.041Z,60.47
2022-09-20T07:26:33.736Z,60.09
2022-09-20T07:29:00.896Z,60.44
2022-09-20T07:31:29.242Z,60.60
2022-09-20T07:33:56.186Z,60.12
2022-09-20T07:36:22.844Z,59.75
2022-09-20T07:38:51.023Z,59.86
2022-09-20T07:41:23.002Z,60.06
2022-09-20T07:43:50.809Z,60.39
2022-09-20T07:46:17.350Z,60.96
2022-09-20T07:48:44.238Z,61.25
2022-09-20T07:51:13.528Z,61.24
2022-09-20T07:53:41.272Z,60.30
2022-09-20T07:56:11.560Z,60.61
2022-09-20T07:58:38.330Z,59.86
2022-09-20T08:01:10.027Z,59.50
2022-09-20T08:03:37.261Z,58.15
2022-09-20T08:06:09.306Z,56.68
2022-09-20T08:08:37.758Z,56.05
2022-09-20T08:11:07.452Z,55.10
2022-09-20T08:16:32.895Z,54.90
2022-09-20T08:19:02.736Z,54.54
2022-09-20T08:21:32.666Z,53.16
2022-09-20T08:24:00.072Z,52.57
2022-09-20T08:26:29.204Z,52.22
2022-09-20T08:28:57.898Z,51.84
2022-09-20T08:31:26.948Z,51.85
2022-09-20T08:33:54.618Z,52.36
2022-09-20T08:36:24.589Z,52.30
2022-09-20T08:41:42.722Z,51.80
2022-09-20T08:45:00.034Z,48.46
2022-09-20T08:47:34.354Z,49.83
2022-09-20T08:50:09.239Z,50.77
2022-09-20T08:52:40.044Z,50.06
2022-09-20T08:55:22.025Z,50.11
2022-09-20T08:57:57.273Z,48.71
2022-09-20T09:00:28.095Z,49.39
2022-09-20T09:02:57.111Z,48.81
2022-09-20T09:05:33.983Z,47.40
2022-09-20T09:08:05.057Z,46.56
2022-09-20T09:10:42.483Z,47.85
2022-09-20T09:13:19.550Z,47.28
2022-09-20T09:15:52.860Z,48.32
2022-09-20T09:18:19.464Z,48.08
2022-09-20T09:20:47.234Z,46.81
2022-09-20T09:23:26.370Z,47.66
2022-09-20T09:25:54.936Z,49.34
2022-09-20T09:28:29.330Z,48.81
2022-09-20T09:31:29.699Z,47.70
2022-09-20T09:33:56.298Z,47.21
2022-09-20T09:36:25.832Z,46.77
2022-09-20T09:39:25.629Z,44.21
2022-09-20T09:41:52.263Z,46.34
2022-09-20T09:44:30.610Z,45.52
2022-09-20T09:46:57.679Z,44.90
2022-09-20T09:49:26.999Z,45.13
2022-09-20T09:52:14.501Z,42.56
2022-09-20T09:54:50.580Z,44.39
2022-09-20T09:57:22.677Z,43.29
2022-09-20T09:59:51.759Z,43.05
2022-09-20T10:02:41.005Z,42.20
2022-09-20T10:05:19.216Z,44.03
2022-09-20T10:07:55.075Z,45.14
2022-09-20T10:10:52.891Z,44.70
2022-09-20T10:13:40.645Z,45.18
2022-09-20T10:16:36.676Z,45.78
2022-09-20T10:19:09.257Z,45.17
2022-09-20T10:21:56.113Z,44.64
2022-09-20T10:24:30.578Z,43.23
2022-09-20T10:27:36.270Z,40.20
2022-09-20T10:30:07.725Z,40.66
2022-09-20T10:32:50.093Z,39.87
2022-09-20T10:35:24.947Z,38.09
2022-09-20T10:38:10.297Z,39.21
2022-09-20T10:41:25.920Z,37.77
2022-09-20T10:44:16.702Z,37.90
2022-09-20T10:47:14.537Z,42.71
2022-09-20T10:49:51.126Z,44.81
2022-09-20T10:52:48.821Z,44.33
2022-09-20T10:55:33.742Z,42.41
2022-09-20T10:58:37.947Z,44.28
2022-09-20T11:01:29.979Z,50.05
2022-09-20T11:04:31.517Z,50.71
2022-09-20T11:07:19.505Z,55.55
2022-09-20T11:09:59.935Z,55.92
2022-09-20T11:12:42.555Z,55.74
2022-09-20T11:15:17.249Z,54.60
2022-09-20T11:18:03.274Z,53.88
2022-09-20T11:20:36.483Z,51.35
2022-09-20T11:23:14.478Z,50.86
2022-09-20T11:25:51.879Z,50.66
2022-09-20T11:28:20.801Z,50.11
2022-09-20T11:31:12.999Z,48.39
2022-09-20T11:33:58.646Z,47.41
2022-09-20T11:36:34.257Z,42.75
2022-09-20T11:39:05.971Z,43.57
2022-09-20T11:41:34.841Z,44.37
2022-09-20T11:44:07.803Z,43.82
2022-09-20T11:46:43.097Z,43.70
2022-09-20T11:49:47.679Z,50.45
2022-09-20T11:52:28.693Z,57.29
2022-09-20T11:55:07.422Z,56.32
2022-09-20T11:57:34.143Z,57.74
2022-09-20T12:00:06.011Z,57.71
2022-09-20T12:02:48.547Z,59.32
2022-09-20T12:05:41.425Z,62.75
2022-09-20T12:08:22.877Z,60.15
2022-09-20T12:11:04.234Z,59.87
2022-09-20T12:13:35.356Z,58.35
2022-09-20T12:16:06.451Z,58.48
2022-09-20T12:18:46.045Z,60.06
2022-09-20T12:21:18.568Z,59.56
2022-09-20T12:23:59.463Z,59.69
2022-09-20T12:26:25.915Z,63.12
2022-09-20T12:28:54.388Z,61.02
2022-09-20T12:31:29.524Z,62.61
2022-09-20T12:34:11.936Z,59.70
2022-09-20T12:36:42.487Z,59.64
2022-09-20T12:39:12.028Z,59.28
2022-09-20T12:41:51.730Z,57.79
2022-09-20T12:44:37.196Z,56.27
2022-09-20T12:47:15.900Z,55.30
2022-09-20T12:50:04.127Z,55.98
2022-09-20T12:52:56.231Z,55.75
2022-09-20T12:55:49.720Z,55.38
2022-09-20T12:58:16.354Z,56.26
2022-09-20T13:01:01.141Z,57.58
2022-09-20T13:03:28.608Z,57.58
2022-09-20T13:06:07.332Z,57.34
2022-09-20T13:08:47.056Z,59.90
2022-09-20T13:11:47.469Z,60.01
2022-09-20T13:14:28.998Z,58.37
2022-09-20T13:16:58.996Z,57.15
2022-09-20T13:19:46.014Z,55.17
2022-09-20T13:22:26.751Z,55.55
2022-09-20T13:24:57.539Z,54.70
2022-09-20T13:27:32.552Z,55.56
2022-09-20T13:30:32.711Z,55.02
2022-09-20T13:33:17.515Z,51.88
2022-09-20T13:35:48.315Z,54.23
2022-09-20T13:38:22.371Z,54.08
2022-09-20T13:40:50.375Z,56.54
2022-09-20T13:43:36.575Z,62.08
2022-09-20T13:46:10.256Z,61.89
2022-09-20T13:48:37.173Z,64.70
2022-09-20T13:51:04.261Z,73.68
2022-09-20T13:53:41.603Z,74.37
2022-09-20T13:56:17.490Z,78.32
2022-09-20T13:58:44.344Z,73.96
2022-09-20T14:01:32.749Z,77.93
2022-09-20T14:04:09.128Z,73.66
2022-09-20T14:06:38.564Z,73.34
2022-09-20T14:09:11.182Z,72.43
2022-09-20T14:11:39.400Z,72.98
2022-09-20T14:14:08.025Z,72.01
2022-09-20T14:16:39.569Z,71.39
2022-09-20T14:19:08.447Z,70.35
2022-09-20T14:21:37.742Z,69.86
2022-09-20T14:24:16.531Z,69.97
2022-09-20T14:26:59.509Z,69.25
2022-09-20T14:29:34.938Z,68.30
2022-09-20T14:32:07.631Z,67.94
2022-09-20T14:34:38.942Z,67.61
2022-09-20T14:37:13.733Z,66.68
2022-09-20T14:39:49.160Z,66.77
2022-09-20T14:42:22.330Z,66.23
2022-09-20T14:44:52.860Z,65.69
2022-09-20T14:47:52.138Z,65.69
2022-09-20T14:50:35.476Z,65.25
2022-09-20T14:53:04.801Z,64.86
2022-09-20T14:55:37.237Z,64.22
2022-09-20T14:58:13.434Z,64.59
2022-09-20T15:01:21.953Z,64.21
2022-09-20T15:03:48.813Z,63.96
2022-09-20T15:06:15.725Z,64.29
2022-09-20T15:08:46.296Z,63.47
2022-09-20T15:11:20.459Z,62.91
2022-09-20T15:13:46.938Z,61.63
2022-09-20T15:16:17.637Z,62.37
2022-09-20T15:18:44.859Z,62.60
2022-09-20T15:21:12.061Z,62.96
2022-09-20T15:23:39.531Z,61.09
2022-09-20T15:26:07.776Z,61.81
2022-09-20T15:28:34.757Z,61.26
2022-09-20T15:31:01.415Z,60.70
2022-09-20T15:33:31.433Z,60.03
2022-09-20T15:35:59.060Z,59.83
2022-09-20T15:38:27.133Z,59.24
2022-09-20T15:40:54.160Z,58.84
2022-09-20T15:43:24.156Z,58.37
2022-09-20T15:46:01.786Z,58.71
2022-09-20T15:48:30.479Z,59.19
2022-09-20T15:51:04.556Z,58.67
2022-09-20T15:53:33.534Z,58.55
2022-09-20T15:56:01.850Z,58.78
2022-09-20T15:58:36.341Z,57.80
2022-09-20T16:01:05.899Z,57.88
2022-09-20T16:03:32.856Z,57.10
2022-09-20T16:06:04.427Z,58.31
2022-09-20T16:08:33.356Z,58.91
2022-09-20T16:11:00.598Z,58.34
2022-09-20T16:13:27.678Z,58.39
2022-09-20T16:15:59.827Z,58.65
2022-09-20T16:18:45.896Z,59.08
2022-09-20T16:21:14.631Z,59.06
2022-09-20T16:23:44.043Z,60.20
2022-09-20T16:26:13.892Z,60.90
2022-09-20T16:28:45.145Z,60.70
2022-09-20T16:31:42.238Z,63.65
2022-09-20T16:34:21.831Z,63.52
2022-09-20T16:36:50.972Z,64.85
2022-09-20T16:39:19.150Z,65.81
2022-09-20T16:41:48.205Z,66.33
2022-09-20T16:44:15.868Z,69.09
2022-09-20T16:46:42.437Z,68.21
2022-09-20T16:49:10.862Z,67.33
2022-09-20T16:51:39.443Z,68.83
2022-09-20T16:54:16.735Z,69.28
2022-09-20T16:56:46.477Z,68.37
2022-09-20T16:59:15.767Z,69.17
2022-09-20T17:01:43.255Z,68.64
2022-09-20T17:04:12.304Z,68.99
2022-09-20T17:06:39.362Z,70.01
2022-09-20T17:09:06.871Z,71.07
2022-09-20T17:11:36.729Z,70.08
2022-09-20T17:14:04.139Z,70.85
2022-09-20T17:16:33.938Z,70.10
2022-09-20T17:19:03.753Z,70.13
2022-09-20T17:21:30.404Z,70.84
2022-09-20T17:23:59.136Z,71.71
2022-09-20T17:26:53.578Z,71.18
2022-09-20T17:29:21.157Z,71.25
2022-09-20T17:31:54.920Z,72.15
2022-09-20T17:34:22.289Z,72.21
2022-09-20T17:36:49.438Z,71.77
2022-09-20T17:39:16.635Z,72.60
2022-09-20T17:41:46.403Z,72.63
2022-09-20T17:44:14.091Z,72.88
2022-09-20T17:46:42.785Z,73.13
2022-09-20T17:49:11.992Z,72.90
2022-09-20T17:51:43.612Z,72.75
2022-09-20T17:54:14.321Z,73.37
2022-09-20T17:56:47.095Z,74.62
2022-09-20T17:59:18.100Z,74.69
2022-09-20T18:01:46.774Z,74.93
2022-09-20T18:04:14.014Z,75.91
2022-09-20T18:06:44.683Z,75.27
2022-09-20T18:09:14.277Z,74.22
2022-09-20T18:11:45.318Z,74.80
2022-09-20T18:14:12.955Z,76.16
2022-09-20T18:16:39.972Z,74.59
2022-09-20T18:19:08.140Z,74.94
2022-09-20T18:21:36.182Z,74.93
2022-09-20T18:24:06.023Z,74.02
2022-09-20T18:26:32.911Z,74.06
2022-09-20T18:29:11.246Z,73.82
2022-09-20T18:31:43.214Z,73.19
2022-09-20T18:34:17.866Z,73.60
2022-09-20T18:36:55.618Z,73.20
2022-09-20T18:39:29.751Z,73.20
2022-09-20T18:41:57.350Z,73.51
2022-09-20T18:44:24.403Z,73.43
2022-09-20T18:46:55.123Z,73.16
2022-09-20T18:49:22.365Z,73.38
2022-09-20T18:51:49.648Z,73.53
2022-09-20T18:54:16.978Z,73.28
2022-09-20T18:56:45.603Z,72.97
2022-09-20T18:59:19.272Z,73.15
2022-09-20T19:01:55.416Z,74.56
2022-09-20T19:04:51.312Z,73.90
2022-09-20T19:07:39.403Z,73.52
2022-09-20T19:10:05.866Z,73.84
2022-09-20T19:12:51.135Z,73.67
2022-09-20T19:15:25.520Z,74.97
2022-09-20T19:18:06.302Z,73.15
2022-09-20T19:20:52.551Z,74.51
2022-09-20T19:23:52.853Z,73.49
2022-09-20T19:26:23.905Z,74.35
2022-09-20T19:28:52.869Z,73.18
2022-09-20T19:31:31.638Z,73.90
2022-09-20T19:34:00.704Z,73.65
2022-09-20T19:36:49.903Z,72.93
2022-09-20T19:39:45.451Z,73.30
2022-09-20T19:42:24.568Z,73.35
2022-09-20T19:45:04.288Z,73.27
2022-09-20T19:47:50.092Z,73.34
2022-09-20T19:50:38.683Z,73.80
2022-09-20T19:53:05.809Z,72.57
2022-09-20T19:55:33.920Z,72.69
2022-09-20T19:58:01.678Z,71.97
2022-09-20T20:00:28.443Z,72.02
2022-09-20T20:02:55.360Z,71.72
2022-09-20T20:05:25.775Z,71.33
2022-09-20T20:08:09.537Z,72.23
2022-09-20T20:10:52.623Z,72.46
2022-09-20T20:13:52.743Z,72.24
2022-09-20T20:16:36.187Z,71.68
2022-09-20T20:19:40.259Z,72.69
2022-09-20T20:22:15.521Z,72.04
2022-09-20T20:24:51.457Z,72.37
2022-09-20T20:27:18.751Z,72.33
2022-09-20T20:29:45.815Z,71.85
2022-09-20T20:32:12.508Z,72.75
2022-09-20T20:34:39.274Z,72.62
2022-09-20T20:37:06.273Z,71.93
2022-09-20T20:39:32.888Z,72.26
2022-09-20T20:42:04.112Z,72.39
2022-09-20T20:44:31.982Z,72.08
2022-09-20T20:46:58.657Z,72.59
2022-09-20T20:49:25.241Z,73.00
2022-09-20T20:51:51.857Z,72.38
2022-09-20T20:54:18.592Z,72.45
2022-09-20T20:56:45.106Z,72.56
2022-09-20T20:59:11.762Z,72.40
2022-09-20T21:01:45.081Z,72.53
2022-09-20T21:04:12.444Z,73.33
2022-09-20T21:06:40.767Z,73.03
2022-09-20T21:09:08.888Z,73.20
2022-09-20T21:11:43.136Z,72.47
2022-09-20T21:14:11.931Z,72.99
2022-09-20T21:16:42.618Z,73.10
2022-09-20T21:19:13.075Z,72.83
2022-09-20T21:21:42.143Z,73.15
2022-09-20T21:24:10.857Z,72.38
2022-09-20T21:26:38.455Z,72.68
2022-09-20T21:29:08.270Z,72.70
2022-09-20T21:31:37.649Z,72.45
2022-09-20T21:34:05.713Z,72.52
2022-09-20T21:36:32.693Z,72.29
2022-09-20T21:38:59.580Z,72.48
2022-09-20T21:41:29.345Z,73.07
2022-09-20T21:43:57.490Z,72.77
2022-09-20T21:46:28.379Z,72.22
2022-09-20T21:48:56.731Z,72.95
2022-09-20T21:51:24.617Z,72.64
2022-09-20T21:53:59.209Z,73.02
2022-09-20T21:56:28.361Z,73.46
2022-09-20T21:58:55.207Z,73.77
2022-09-20T22:01:23.492Z,73.00
2022-09-20T22:03:52.140Z,73.50
2022-09-20T22:06:21.247Z,74.08
2022-09-20T22:08:53.469Z,73.49
2022-09-20T22:11:22.227Z,73.68
2022-09-20T22:13:50.943Z,73.67
2022-09-20T22:16:24.244Z,73.77
2022-09-20T22:18:51.617Z,73.58
2022-09-20T22:21:21.439Z,73.92
2022-09-20T22:23:54.424Z,73.34
2022-09-20T22:26:22.075Z,73.44
2022-09-20T22:28:51.983Z,73.45
2022-09-20T22:31:24.099Z,72.81
2022-09-20T22:33:53.035Z,73.51
2022-09-20T22:36:22.619Z,72.67
2022-09-20T22:38:49.922Z,73.56
2022-09-20T22:41:18.568Z,73.11
2022-09-20T22:43:45.757Z,72.59
2022-09-20T22:46:18.006Z,73.83
2022-09-20T22:48:44.798Z,73.64
2022-09-20T22:51:14.355Z,73.35
2022-09-20T22:53:41.680Z,73.69
2022-09-20T22:56:17.273Z,73.57
2022-09-20T22:58:46.523Z,73.28
2022-09-20T23:01:15.757Z,72.56
2022-09-20T23:03:45.146Z,72.68
2022-09-20T23:06:17.720Z,72.60
2022-09-20T23:08:44.308Z,73.21
2022-09-20T23:11:11.155Z,72.09
2022-09-20T23:13:37.794Z,72.15
2022-09-20T23:16:19.176Z,72.92
2022-09-20T23:18:46.876Z,72.22
2022-09-20T23:21:13.693Z,72.85
2022-09-20T23:23:43.205Z,73.27
2022-09-20T23:26:15.196Z,73.37
2022-09-20T23:28:44.458Z,73.03
2022-09-20T23:31:13.686Z,73.21
2022-09-20T23:33:46.759Z,73.07
2022-09-20T23:36:13.307Z,73.38
2022-09-20T23:38:39.859Z,73.61
2022-09-20T23:41:10.014Z,73.21
2022-09-20T23:43:37.190Z,73.63
2022-09-20T23:46:05.487Z,73.42
2022-09-20T23:48:32.783Z,73.53
2022-09-20T23:50:59.468Z,73.39
2022-09-20T23:53:25.965Z,73.27
2022-09-20T23:55:52.452Z,72.33
2022-09-20T23:58:18.955Z,72.67
